Green Lofoten — P3MG8 — position and weather

sailwx.info

Track history (hours):
 
Tides and Currents Weather Stations Pressure Air Temp Water Temp Dewpoint Dewpoint Depression Visibility Wind Speed Wind Dir Waves Ship Positions

Green Lofoten

Last reported at 2016-Dec-10 10:33 UTC. Time now 2016-Dec-10 10:50 UTC.
Position N 55°27' E 012°41'.

Length 98 m; draft 5.5 m.

Type: Ship. MMSI: 212857000.

Date/timePositionNaut miles runAvg speedWind from/ knotsBaromVisibWave heightAir tempDewpointWater temp
2016-Dec-10 10:33N 55°27' E 012°41'1312.7
2016-Dec-10 09:33N 55°40' E 012°41'1413.7
2016-Dec-10 08:34N 55°54' E 012°40'1312.5
2016-Dec-10 07:33N 56°06' E 012°34'1414.3
2016-Dec-10 06:33N 56°14' E 012°13'4414.6
2016-Dec-10 03:33N 56°55' E 011°45'1515.0
2016-Dec-10 02:33N 57°09' E 011°35'1514.8
2016-Dec-10 01:33N 57°23' E 011°26'1514.7
2016-Dec-10 00:33N 57°35' E 011°09'1515.1
2016-Dec-09 23:33N 57°45' E 010°48'1514.8
2016-Dec-09 22:33N 57°48' E 010°21'8914.7
2016-Dec-09 16:28N 57°54' E 007°34'1314.0
2016-Dec-09 15:33N 57°55' E 007°09'1414.3
2016-Dec-09 14:33N 57°57' E 006°43'1514.2
2016-Dec-09 13:31N 58°03' E 006°18'1313.7
2016-Dec-09 12:32N 58°11' E 005°58'1313.5
2016-Dec-09 11:33N 58°20' E 005°39'1312.8
2016-Dec-09 10:34N 58°29' E 005°21'1312.8
2016-Dec-09 09:34N 58°36' E 005°01'1313.2
2016-Dec-09 08:33N 58°44' E 004°41'  
2016-Dec-02 19:33N 57°58' E 006°12'9 9.2
2016-Dec-02 18:33N 57°55' E 006°29'1 0.4
2016-Dec-02 16:08N 57°55' E 006°31'711.7
2016-Dec-02 15:33N 57°55' E 006°43'3131.2
2016-Dec-02 14:32N 57°53' E 007°42'1010.0
2016-Dec-02 13:33N 57°53' E 008°01'10 9.9
2016-Dec-02 12:33N 57°52' E 008°20'6512.2
2016-Dec-02 07:11N 57°49' E 010°22'812.2
2016-Dec-02 06:33N 57°49' E 010°37'1211.6
2016-Dec-02 05:34N 57°43' E 010°55'1212.3
2016-Dec-02 04:34N 57°35' E 011°13'1110.6
2016-Dec-02 03:34N 57°27' E 011°26'10 9.5
2016-Dec-02 02:33N 57°18' E 011°33'1010.1
2016-Dec-02 01:33N 57°09' E 011°39'5510.8
2016-Dec-01 20:26N 56°17' E 012°10'910.4
2016-Dec-01 19:33N 56°12' E 012°24'1110.7
2016-Dec-01 18:34N 56°04' E 012°38'1010.3
2016-Dec-01 17:34N 55°55' E 012°45'1212.4
2016-Dec-01 16:33N 55°43' E 012°41'1211.8
2016-Dec-01 15:33N 55°31' E 012°43'1312.9
2016-Dec-01 14:33N 55°18' E 012°43'1312.7
2016-Dec-01 13:33N 55°16' E 013°05'2713.2
2016-Dec-01 11:31N 55°14' E 013°52'1313.3
2016-Dec-01 10:33N 55°14' E 014°15'1313.3
2016-Dec-01 09:33N 55°24' E 014°30'1413.7
2016-Dec-01 08:33N 55°32' E 014°50'1313.1
2016-Dec-01 07:33N 55°37' E 015°10'1813.0
2016-Dec-01 06:11N 55°46' E 015°38'  
Track history (hours):
 
Tides and Currents Weather Stations Pressure Air Temp Water Temp Dewpoint Dewpoint Depression Visibility Wind Speed Wind Dir Waves Ship Positions

Green Lofoten

Last reported at 2016-Dec-10 10:33 UTC. Time now 2016-Dec-10 10:50 UTC.
Position N 55°27' E 012°41'.

Length 98 m; draft 5.5 m.

Type: Ship. MMSI: 212857000.

Date/timePositionNaut miles runAvg speedWind from/ knotsBaromVisibWave heightAir tempDewpointWater temp
2016-Dec-10 10:33N 55°27' E 012°41'1312.7
2016-Dec-10 09:33N 55°40' E 012°41'1413.7
2016-Dec-10 08:34N 55°54' E 012°40'1312.5
2016-Dec-10 07:33N 56°06' E 012°34'1414.3
2016-Dec-10 06:33N 56°14' E 012°13'4414.6
2016-Dec-10 03:33N 56°55' E 011°45'1515.0
2016-Dec-10 02:33N 57°09' E 011°35'1514.8
2016-Dec-10 01:33N 57°23' E 011°26'1514.7
2016-Dec-10 00:33N 57°35' E 011°09'1515.1
2016-Dec-09 23:33N 57°45' E 010°48'1514.8
2016-Dec-09 22:33N 57°48' E 010°21'8914.7
2016-Dec-09 16:28N 57°54' E 007°34'1314.0
2016-Dec-09 15:33N 57°55' E 007°09'1414.3
2016-Dec-09 14:33N 57°57' E 006°43'1514.2
2016-Dec-09 13:31N 58°03' E 006°18'1313.7
2016-Dec-09 12:32N 58°11' E 005°58'1313.5
2016-Dec-09 11:33N 58°20' E 005°39'1312.8
2016-Dec-09 10:34N 58°29' E 005°21'1312.8
2016-Dec-09 09:34N 58°36' E 005°01'1313.2
2016-Dec-09 08:33N 58°44' E 004°41'  
2016-Dec-02 19:33N 57°58' E 006°12'9 9.2
2016-Dec-02 18:33N 57°55' E 006°29'1 0.4
2016-Dec-02 16:08N 57°55' E 006°31'711.7
2016-Dec-02 15:33N 57°55' E 006°43'3131.2
2016-Dec-02 14:32N 57°53' E 007°42'1010.0
2016-Dec-02 13:33N 57°53' E 008°01'10 9.9
2016-Dec-02 12:33N 57°52' E 008°20'6512.2
2016-Dec-02 07:11N 57°49' E 010°22'812.2
2016-Dec-02 06:33N 57°49' E 010°37'1211.6
2016-Dec-02 05:34N 57°43' E 010°55'1212.3
2016-Dec-02 04:34N 57°35' E 011°13'1110.6
2016-Dec-02 03:34N 57°27' E 011°26'10 9.5
2016-Dec-02 02:33N 57°18' E 011°33'1010.1
2016-Dec-02 01:33N 57°09' E 011°39'5510.8
2016-Dec-01 20:26N 56°17' E 012°10'910.4
2016-Dec-01 19:33N 56°12' E 012°24'1110.7
2016-Dec-01 18:34N 56°04' E 012°38'1010.3
2016-Dec-01 17:34N 55°55' E 012°45'1212.4
2016-Dec-01 16:33N 55°43' E 012°41'1211.8
2016-Dec-01 15:33N 55°31' E 012°43'1312.9
2016-Dec-01 14:33N 55°18' E 012°43'1312.7
2016-Dec-01 13:33N 55°16' E 013°05'2713.2
2016-Dec-01 11:31N 55°14' E 013°52'1313.3
2016-Dec-01 10:33N 55°14' E 014°15'1313.3
2016-Dec-01 09:33N 55°24' E 014°30'1413.7
2016-Dec-01 08:33N 55°32' E 014°50'1313.1
2016-Dec-01 07:33N 55°37' E 015°10'1813.0
2016-Dec-01 06:11N 55°46' E 015°38'  

Dump ship's entire track history